createdAt,value
2019-05-06T00:00:04.631Z,5.67
2019-05-06T00:02:34.084Z,5.45
2019-05-06T00:05:04.146Z,7.17
2019-05-06T00:07:33.994Z,5.70
2019-05-06T00:10:02.975Z,4.60
2019-05-06T00:12:33.542Z,4.87
2019-05-06T00:15:04.007Z,5.95
2019-05-06T00:17:34.935Z,7.00
2019-05-06T00:20:06.181Z,5.20
2019-05-06T00:22:35.099Z,5.40
2019-05-06T00:25:06.753Z,5.60
2019-05-06T00:27:37.388Z,4.87
2019-05-06T00:30:07.101Z,5.58
2019-05-06T00:32:35.781Z,6.35
2019-05-06T00:35:05.691Z,5.20
2019-05-06T00:37:34.918Z,5.55
2019-05-06T00:40:05.923Z,6.47
2019-05-06T00:42:36.587Z,5.20
2019-05-06T00:45:07.053Z,4.70
2019-05-06T00:47:36.053Z,4.70
2019-05-06T00:50:06.297Z,5.05
2019-05-06T00:52:35.530Z,5.90
2019-05-06T00:55:04.581Z,6.35
2019-05-06T00:57:47.808Z,5.33
2019-05-06T01:00:17.733Z,6.17
2019-05-06T01:02:46.627Z,5.92
2019-05-06T01:05:15.885Z,6.10
2019-05-06T01:07:44.947Z,5.22
2019-05-06T01:10:14.424Z,5.35
2019-05-06T01:12:44.900Z,4.35
2019-05-06T01:15:16.263Z,4.70
2019-05-06T01:17:45.023Z,4.58
2019-05-06T01:20:14.222Z,4.50
2019-05-06T01:22:43.643Z,5.60
2019-05-06T01:25:14.234Z,4.70
2019-05-06T01:27:44.438Z,4.87
2019-05-06T01:30:14.032Z,4.60
2019-05-06T01:32:43.601Z,4.78
2019-05-06T01:35:14.064Z,5.85
2019-05-06T01:37:44.859Z,4.65
2019-05-06T01:40:15.333Z,5.50
2019-05-06T01:42:54.010Z,5.30
2019-05-06T01:45:23.755Z,5.80
2019-05-06T01:47:54.397Z,5.08
2019-05-06T01:50:23.928Z,5.60
2019-05-06T01:52:54.019Z,5.20
2019-05-06T01:55:23.867Z,5.75
2019-05-06T01:57:54.461Z,5.37
2019-05-06T02:00:23.729Z,5.37
2019-05-06T02:02:54.638Z,5.50
2019-05-06T02:05:24.245Z,5.60
2019-05-06T02:07:55.031Z,5.92
2019-05-06T02:10:24.134Z,5.67
2019-05-06T02:12:54.110Z,5.37
2019-05-06T02:15:23.927Z,6.03
2019-05-06T02:17:55.004Z,5.70
2019-05-06T02:20:24.632Z,5.83
2019-05-06T02:22:58.297Z,5.47
2019-05-06T02:25:29.062Z,5.08
2019-05-06T02:27:57.972Z,5.20
2019-05-06T02:30:45.381Z,4.87
2019-05-06T02:33:19.462Z,4.92
2019-05-06T02:35:56.165Z,5.22
2019-05-06T02:38:28.128Z,5.60
2019-05-06T02:40:56.671Z,4.97
2019-05-06T02:43:25.893Z,4.87
2019-05-06T02:45:54.654Z,5.35
2019-05-06T02:48:33.356Z,4.80
2019-05-06T02:51:03.680Z,5.12
2019-05-06T02:53:33.630Z,4.85
2019-05-06T02:56:04.012Z,5.10
2019-05-06T02:58:33.261Z,5.30
2019-05-06T03:01:03.508Z,5.55
2019-05-06T03:03:33.635Z,5.12
2019-05-06T03:06:03.839Z,6.08
2019-05-06T03:08:33.628Z,6.62
2019-05-06T03:11:03.902Z,6.37
2019-05-06T03:13:33.984Z,6.33
2019-05-06T03:16:05.897Z,5.80
2019-05-06T03:18:34.067Z,5.83
2019-05-06T03:21:04.536Z,5.92
2019-05-06T03:23:38.004Z,5.65
2019-05-06T03:26:07.095Z,6.20
2019-05-06T03:28:36.335Z,5.97
2019-05-06T03:31:07.592Z,5.60
2019-05-06T03:33:55.056Z,4.70
2019-05-06T03:36:16.684Z,4.92
2019-05-06T03:38:37.141Z,5.90
2019-05-06T03:41:05.979Z,5.62
2019-05-06T03:43:35.029Z,4.87
2019-05-06T03:46:08.303Z,5.30
2019-05-06T03:48:43.866Z,4.72
2019-05-06T03:51:13.518Z,5.00
2019-05-06T03:53:43.341Z,4.83
2019-05-06T03:56:15.477Z,4.90
2019-05-06T03:58:44.226Z,5.35
2019-05-06T04:01:13.415Z,4.35
2019-05-06T04:03:47.535Z,4.90
2019-05-06T04:06:13.776Z,4.95
2019-05-06T04:08:43.917Z,4.92
2019-05-06T04:11:16.314Z,4.47
2019-05-06T04:13:46.235Z,5.12
2019-05-06T04:16:19.523Z,5.47
2019-05-06T04:18:49.863Z,4.75
2019-05-06T04:21:23.675Z,5.42
2019-05-06T04:23:55.210Z,4.85
2019-05-06T04:26:25.554Z,4.85
2019-05-06T04:28:54.632Z,5.03
2019-05-06T04:31:23.628Z,4.72
2019-05-06T04:34:08.815Z,4.30
2019-05-06T04:36:23.844Z,5.58
2019-05-06T04:38:54.016Z,4.92
2019-05-06T04:41:26.646Z,4.67
2019-05-06T04:43:53.907Z,4.92
2019-05-06T04:46:23.676Z,5.35
2019-05-06T04:48:53.886Z,6.55
2019-05-06T04:51:24.742Z,5.10
2019-05-06T04:53:54.019Z,5.25
2019-05-06T04:56:23.708Z,5.55
2019-05-06T04:58:53.805Z,5.92
2019-05-06T05:01:23.464Z,4.90
2019-05-06T05:03:53.874Z,5.15
2019-05-06T05:06:23.170Z,6.17
2019-05-06T05:08:53.273Z,5.83
2019-05-06T05:11:26.996Z,6.08
2019-05-06T05:14:02.747Z,5.95
2019-05-06T05:16:38.541Z,6.03
2019-05-06T05:19:09.233Z,6.17
2019-05-06T05:21:38.252Z,6.78
2019-05-06T05:24:07.221Z,5.28
2019-05-06T05:26:36.413Z,5.55
2019-05-06T05:29:05.349Z,5.15
2019-05-06T05:31:34.293Z,4.97
2019-05-06T05:34:03.295Z,4.95
2019-05-06T05:36:32.927Z,5.80
2019-05-06T05:39:03.394Z,5.65
2019-05-06T05:41:33.233Z,5.30
2019-05-06T05:44:04.055Z,5.50
2019-05-06T05:46:33.157Z,5.97
2019-05-06T05:49:06.548Z,5.85
2019-05-06T05:51:35.462Z,5.97
2019-05-06T05:54:04.384Z,5.25
2019-05-06T05:56:33.532Z,6.65
2019-05-06T05:59:03.247Z,5.83
2019-05-06T06:01:32.849Z,5.60
2019-05-06T06:04:03.078Z,5.65
2019-05-06T06:06:33.180Z,5.45
2019-05-06T06:09:03.126Z,5.53
2019-05-06T06:11:39.529Z,4.92
2019-05-06T06:14:26.748Z,5.55
2019-05-06T06:17:02.009Z,5.83
2019-05-06T06:19:32.919Z,5.05
2019-05-06T06:22:03.626Z,5.20
2019-05-06T06:24:34.058Z,5.10
2019-05-06T06:27:03.266Z,4.28
2019-05-06T06:29:32.484Z,4.95
2019-05-06T06:32:09.299Z,5.45
2019-05-06T06:34:56.166Z,4.58
2019-05-06T06:37:36.315Z,4.75
2019-05-06T06:40:12.999Z,4.87
2019-05-06T06:42:42.745Z,4.70
2019-05-06T06:45:12.361Z,4.70
2019-05-06T06:47:42.515Z,4.78
2019-05-06T06:50:12.594Z,4.05
2019-05-06T06:52:42.147Z,4.35
2019-05-06T06:55:12.927Z,4.83
2019-05-06T06:57:59.914Z,4.28
2019-05-06T07:00:39.538Z,7.95
2019-05-06T07:03:12.438Z,6.90
2019-05-06T07:05:42.844Z,5.67
2019-05-06T07:08:12.713Z,5.28
2019-05-06T07:10:45.248Z,4.40
2019-05-06T07:13:14.782Z,3.60
2019-05-06T07:15:43.694Z,4.15
2019-05-06T07:18:13.481Z,4.58
2019-05-06T07:20:47.459Z,4.22
2019-05-06T07:23:32.513Z,6.60
2019-05-06T07:26:02.865Z,4.25
2019-05-06T07:28:32.651Z,4.47
2019-05-06T07:31:17.872Z,3.80
2019-05-06T07:33:33.540Z,3.95
2019-05-06T07:36:02.513Z,3.70
2019-05-06T07:38:32.664Z,4.00
2019-05-06T07:41:04.688Z,3.90
2019-05-06T07:43:44.538Z,4.12
2019-05-06T07:46:33.113Z,3.65
2019-05-06T07:49:03.320Z,3.98
2019-05-06T07:51:32.561Z,4.37
2019-05-06T07:54:04.359Z,4.17
2019-05-06T07:56:33.190Z,3.85
2019-05-06T07:59:08.686Z,3.90
2019-05-06T08:01:38.096Z,3.62
2019-05-06T08:04:07.181Z,3.50
2019-05-06T08:06:36.653Z,3.27
2019-05-06T08:09:07.012Z,3.12
2019-05-06T08:11:36.023Z,2.85
2019-05-06T08:14:05.537Z,2.60
2019-05-06T08:16:36.272Z,2.95
2019-05-06T08:19:05.389Z,2.40
2019-05-06T08:21:44.896Z,2.40
2019-05-06T08:24:14.046Z,2.17
2019-05-06T08:26:43.450Z,2.00
2019-05-06T08:29:15.499Z,2.40
2019-05-06T08:31:43.086Z,1.80
2019-05-06T08:34:12.372Z,1.77
2019-05-06T08:36:43.024Z,2.00
2019-05-06T08:39:14.341Z,2.15
2019-05-06T08:41:43.376Z,1.60
2019-05-06T08:44:12.818Z,1.98
2019-05-06T08:46:44.233Z,1.75
2019-05-06T08:49:14.663Z,2.10
2019-05-06T08:51:45.215Z,2.12
2019-05-06T08:54:15.586Z,1.90
2019-05-06T08:56:44.784Z,1.90
2019-05-06T08:59:14.611Z,2.02
2019-05-06T09:01:47.930Z,1.50
2019-05-06T09:04:17.020Z,2.22
2019-05-06T09:06:46.376Z,2.37
2019-05-06T09:09:15.541Z,2.33
2019-05-06T09:11:44.590Z,2.05
2019-05-06T09:14:14.178Z,2.02
2019-05-06T09:16:43.980Z,1.82
2019-05-06T09:19:13.145Z,2.15
2019-05-06T09:21:45.726Z,2.60
2019-05-06T09:24:12.929Z,2.25
2019-05-06T09:26:43.420Z,2.02
2019-05-06T09:29:16.937Z,2.35
2019-05-06T09:31:56.285Z,2.05
2019-05-06T09:34:29.734Z,2.20
2019-05-06T09:37:16.911Z,2.10
2019-05-06T09:39:47.624Z,2.00
2019-05-06T09:42:17.011Z,2.15
2019-05-06T09:44:50.042Z,2.00
2019-05-06T09:47:37.712Z,1.90
2019-05-06T09:50:08.425Z,2.58
2019-05-06T09:52:37.339Z,1.87
2019-05-06T09:55:22.197Z,1.60
2019-05-06T09:58:05.006Z,1.52
2019-05-06T10:00:38.967Z,2.20
2019-05-06T10:03:08.106Z,1.87
2019-05-06T10:05:36.825Z,2.00
2019-05-06T10:08:06.096Z,2.00
2019-05-06T10:10:34.986Z,2.00
2019-05-06T10:13:03.952Z,1.60
2019-05-06T10:15:33.652Z,2.10
2019-05-06T10:18:12.506Z,1.90
2019-05-06T10:20:44.492Z,2.10
2019-05-06T10:23:14.955Z,1.87
2019-05-06T10:25:44.185Z,1.72
2019-05-06T10:28:18.363Z,6.78
2019-05-06T10:30:47.804Z,2.05
2019-05-06T10:33:24.648Z,2.10
2019-05-06T10:35:53.645Z,2.15
2019-05-06T10:38:33.514Z,2.17
2019-05-06T10:41:07.578Z,2.00
2019-05-06T10:43:39.977Z,2.60
2019-05-06T10:46:08.873Z,2.00
2019-05-06T10:48:38.615Z,2.30
2019-05-06T10:51:09.223Z,2.10
2019-05-06T10:53:38.187Z,2.35
2019-05-06T10:56:17.923Z,2.12
2019-05-06T10:58:47.134Z,1.92
2019-05-06T11:01:22.973Z,2.25
2019-05-06T11:03:52.517Z,1.95
2019-05-06T11:06:22.100Z,2.30
2019-05-06T11:08:52.519Z,2.00
2019-05-06T11:11:32.723Z,2.30
2019-05-06T11:13:52.227Z,1.90
2019-05-06T11:16:23.766Z,2.00
2019-05-06T11:18:53.548Z,2.02
2019-05-06T11:21:22.800Z,2.17
2019-05-06T11:23:52.676Z,2.00
2019-05-06T11:26:23.711Z,1.98
2019-05-06T11:29:04.717Z,2.40
2019-05-06T11:31:38.242Z,2.17
2019-05-06T11:34:22.166Z,2.40
2019-05-06T11:36:53.120Z,1.85
2019-05-06T11:39:23.278Z,2.10
2019-05-06T11:42:14.470Z,2.02
2019-05-06T11:44:24.137Z,2.25
2019-05-06T11:46:53.301Z,1.90
2019-05-06T11:49:23.269Z,1.62
2019-05-06T11:51:52.803Z,1.72
2019-05-06T11:54:24.492Z,1.80
2019-05-06T11:56:57.972Z,2.00
2019-05-06T11:59:24.767Z,2.30
2019-05-06T12:01:55.308Z,1.85
2019-05-06T12:04:24.062Z,1.50
2019-05-06T12:07:10.013Z,2.05
2019-05-06T12:09:23.146Z,1.62
2019-05-06T12:11:52.911Z,2.20
2019-05-06T12:14:22.802Z,1.65
2019-05-06T12:16:54.880Z,1.98
2019-05-06T12:19:22.738Z,1.98
2019-05-06T12:21:52.232Z,1.70
2019-05-06T12:24:22.881Z,2.02
2019-05-06T12:26:52.188Z,1.87
2019-05-06T12:29:21.307Z,2.00
2019-05-06T12:31:52.944Z,2.00
2019-05-06T12:34:22.335Z,1.80
2019-05-06T12:36:52.845Z,2.00
2019-05-06T12:39:23.627Z,2.35
2019-05-06T12:42:00.009Z,2.00
2019-05-06T12:44:29.334Z,2.60
2019-05-06T12:47:05.703Z,2.20
2019-05-06T12:49:34.623Z,2.47
2019-05-06T12:52:04.146Z,2.75
2019-05-06T12:54:33.690Z,2.67
2019-05-06T12:57:03.508Z,3.15
2019-05-06T12:59:32.744Z,4.87
2019-05-06T13:02:02.824Z,2.98
2019-05-06T13:04:49.433Z,4.35
2019-05-06T13:07:03.157Z,3.02
2019-05-06T13:09:33.131Z,3.35
2019-05-06T13:12:03.731Z,2.50
2019-05-06T13:14:33.617Z,3.47
2019-05-06T13:17:02.805Z,3.52
2019-05-06T13:19:32.587Z,3.00
2019-05-06T13:22:03.750Z,3.02
2019-05-06T13:24:32.752Z,2.87
2019-05-06T13:27:02.572Z,2.87
2019-05-06T13:29:35.478Z,2.83
2019-05-06T13:32:04.471Z,2.37
2019-05-06T13:34:33.501Z,2.52
2019-05-06T13:37:02.679Z,2.72
2019-05-06T13:39:32.793Z,2.60
2019-05-06T13:42:02.038Z,3.00
2019-05-06T13:44:32.100Z,2.90
2019-05-06T13:47:02.994Z,2.45
2019-05-06T13:49:33.315Z,2.77
2019-05-06T13:52:04.661Z,2.90
2019-05-06T13:54:34.207Z,2.92
2019-05-06T13:57:03.221Z,3.98
2019-05-06T13:59:35.541Z,3.10
2019-05-06T14:02:08.373Z,2.98
2019-05-06T14:04:38.624Z,2.60
2019-05-06T14:07:07.754Z,2.37
2019-05-06T14:09:40.219Z,3.12
2019-05-06T14:12:08.617Z,3.00
2019-05-06T14:14:37.676Z,3.50
2019-05-06T14:17:06.736Z,3.25
2019-05-06T14:19:35.825Z,2.45
2019-05-06T14:22:04.745Z,2.33
2019-05-06T14:24:34.854Z,2.80
2019-05-06T14:27:13.488Z,3.10
2019-05-06T14:29:53.164Z,2.50
2019-05-06T14:32:23.471Z,2.70
2019-05-06T14:34:52.066Z,2.70
2019-05-06T14:37:22.615Z,3.12
2019-05-06T14:39:59.365Z,3.60
2019-05-06T14:42:26.976Z,4.20
2019-05-06T14:44:55.897Z,2.83
2019-05-06T14:47:26.825Z,3.00
2019-05-06T14:49:55.982Z,2.98
2019-05-06T14:52:24.919Z,3.08
2019-05-06T14:54:58.922Z,2.80
2019-05-06T14:57:27.659Z,3.20
2019-05-06T14:59:56.519Z,3.50
2019-05-06T15:02:27.245Z,3.45
2019-05-06T15:04:56.111Z,3.40
2019-05-06T15:07:24.801Z,2.87
2019-05-06T15:10:02.507Z,2.92
2019-05-06T15:12:24.323Z,3.42
2019-05-06T15:14:53.107Z,4.03
2019-05-06T15:17:23.105Z,2.80
2019-05-06T15:19:52.787Z,5.05
2019-05-06T15:22:22.766Z,2.98
2019-05-06T15:24:53.706Z,4.47
2019-05-06T15:27:23.157Z,3.40
2019-05-06T15:29:54.404Z,3.42
2019-05-06T15:32:27.947Z,3.30
2019-05-06T15:35:04.501Z,3.47
2019-05-06T15:37:46.570Z,3.10
2019-05-06T15:40:30.726Z,3.47
2019-05-06T15:42:48.669Z,2.95
2019-05-06T15:45:19.024Z,3.33
2019-05-06T15:47:47.695Z,3.62
2019-05-06T15:50:16.631Z,3.02
2019-05-06T15:52:45.575Z,3.20
2019-05-06T15:55:14.782Z,2.95
2019-05-06T15:57:46.930Z,3.67
2019-05-06T16:00:17.800Z,3.02
2019-05-06T16:02:46.872Z,2.80
2019-05-06T16:05:19.768Z,3.40
2019-05-06T16:07:46.912Z,3.70
2019-05-06T16:10:16.645Z,2.70
2019-05-06T16:12:47.142Z,2.67
2019-05-06T16:15:16.173Z,3.98
2019-05-06T16:17:45.480Z,4.03
2019-05-06T16:20:14.735Z,3.47
2019-05-06T16:22:45.166Z,3.17
2019-05-06T16:25:16.300Z,3.65
2019-05-06T16:27:46.725Z,3.37
2019-05-06T16:30:17.383Z,3.00
2019-05-06T16:32:46.172Z,3.52
2019-05-06T16:35:15.155Z,3.33
2019-05-06T16:37:43.787Z,4.05
2019-05-06T16:40:12.821Z,3.17
2019-05-06T16:42:45.357Z,3.10
2019-05-06T16:45:12.755Z,2.90
2019-05-06T16:47:44.446Z,2.72
2019-05-06T16:50:13.509Z,2.40
2019-05-06T16:52:45.502Z,2.87
2019-05-06T16:55:15.305Z,4.25
2019-05-06T16:57:45.509Z,3.05
2019-05-06T17:00:18.024Z,2.67
2019-05-06T17:02:56.862Z,4.15
2019-05-06T17:05:23.228Z,3.37
2019-05-06T17:07:53.753Z,3.40
2019-05-06T17:10:24.390Z,3.30
2019-05-06T17:12:53.673Z,4.30
2019-05-06T17:15:23.055Z,3.65
2019-05-06T17:17:53.163Z,2.90
2019-05-06T17:20:22.792Z,2.55
2019-05-06T17:22:53.230Z,3.50
2019-05-06T17:25:22.429Z,3.30
2019-05-06T17:27:52.699Z,2.95
2019-05-06T17:30:33.090Z,3.12
2019-05-06T17:33:22.318Z,3.25
2019-05-06T17:35:52.167Z,2.77
2019-05-06T17:38:22.635Z,3.25
2019-05-06T17:40:52.426Z,5.40
2019-05-06T17:43:22.545Z,16.20
2019-05-06T17:46:01.697Z,7.05
2019-05-06T17:48:37.731Z,2.80
2019-05-06T17:51:15.018Z,6.55
2019-05-06T17:53:49.008Z,5.03
2019-05-06T17:56:17.861Z,4.03
2019-05-06T17:58:46.616Z,6.12
2019-05-06T18:01:17.005Z,6.08
2019-05-06T18:03:45.878Z,3.95
2019-05-06T18:06:14.666Z,4.10
2019-05-06T18:08:44.500Z,3.30
2019-05-06T18:11:14.031Z,5.42
2019-05-06T18:13:43.330Z,6.92
2019-05-06T18:16:13.281Z,7.62
2019-05-06T18:18:42.382Z,9.20
2019-05-06T18:21:12.293Z,8.35
2019-05-06T18:23:41.625Z,13.22
2019-05-06T18:26:10.444Z,7.42
2019-05-06T18:28:39.364Z,7.58
2019-05-06T18:31:08.270Z,13.93
2019-05-06T18:33:37.540Z,10.15
2019-05-06T18:36:06.669Z,18.23
2019-05-06T18:38:35.554Z,4.95
2019-05-06T18:41:04.883Z,6.35
2019-05-06T18:43:33.906Z,13.53
2019-05-06T18:46:03.312Z,3.87
2019-05-06T18:48:35.198Z,3.25
2019-05-06T18:51:04.836Z,3.08
2019-05-06T18:53:33.865Z,3.42
2019-05-06T18:56:03.350Z,4.05
2019-05-06T18:58:32.922Z,3.83
2019-05-06T19:01:03.959Z,4.60
2019-05-06T19:03:36.728Z,3.80
2019-05-06T19:06:05.740Z,4.08
2019-05-06T19:08:48.703Z,4.37
2019-05-06T19:11:18.374Z,4.58
2019-05-06T19:13:47.513Z,3.80
2019-05-06T19:16:16.446Z,4.50
2019-05-06T19:18:45.503Z,3.98
2019-05-06T19:21:14.670Z,4.33
2019-05-06T19:23:43.636Z,4.40
2019-05-06T19:26:12.683Z,3.77
2019-05-06T19:28:43.039Z,3.75
2019-05-06T19:31:12.461Z,3.90
2019-05-06T19:33:43.049Z,4.55
2019-05-06T19:36:12.628Z,3.75
2019-05-06T19:38:42.321Z,4.28
2019-05-06T19:41:12.870Z,3.70
2019-05-06T19:43:41.876Z,3.98
2019-05-06T19:46:12.078Z,3.60
2019-05-06T19:48:43.131Z,4.03
2019-05-06T19:51:11.725Z,3.50
2019-05-06T19:53:42.883Z,3.20
2019-05-06T19:56:12.344Z,3.42
2019-05-06T19:58:42.858Z,3.60
2019-05-06T20:01:12.429Z,3.27
2019-05-06T20:03:41.659Z,3.80
2019-05-06T20:06:32.380Z,3.92
2019-05-06T20:09:03.016Z,3.58
2019-05-06T20:11:33.513Z,4.12
2019-05-06T20:14:03.299Z,4.22
2019-05-06T20:16:33.357Z,4.10
2019-05-06T20:19:03.145Z,4.42
2019-05-06T20:21:32.826Z,4.03
2019-05-06T20:24:02.347Z,4.03
2019-05-06T20:26:32.443Z,4.58
2019-05-06T20:29:02.295Z,4.60
2019-05-06T20:31:32.175Z,4.50
2019-05-06T20:34:02.219Z,4.17
2019-05-06T20:36:33.172Z,4.53
2019-05-06T20:39:02.554Z,4.50
2019-05-06T20:41:32.950Z,4.80
2019-05-06T20:44:02.982Z,4.70
2019-05-06T20:46:32.306Z,5.22
2019-05-06T20:49:02.438Z,5.15
2019-05-06T20:51:32.794Z,5.20
2019-05-06T20:54:02.150Z,5.53
2019-05-06T20:56:32.759Z,4.95
2019-05-06T20:59:02.480Z,5.30
2019-05-06T21:01:32.647Z,5.80
2019-05-06T21:04:02.247Z,5.95
2019-05-06T21:06:32.228Z,6.33
2019-05-06T21:09:02.099Z,6.62
2019-05-06T21:11:32.538Z,6.70
2019-05-06T21:14:02.364Z,6.65
2019-05-06T21:16:32.011Z,6.75
2019-05-06T21:19:03.826Z,6.60
2019-05-06T21:21:32.694Z,6.97
2019-05-06T21:24:02.033Z,7.15
2019-05-06T21:26:33.009Z,7.70
2019-05-06T21:29:03.232Z,7.28
2019-05-06T21:31:32.689Z,7.42
2019-05-06T21:34:02.598Z,7.50
2019-05-06T21:36:31.764Z,8.45
2019-05-06T21:39:01.989Z,7.65
2019-05-06T21:41:32.727Z,8.25
2019-05-06T21:44:02.427Z,8.28
2019-05-06T21:46:31.907Z,8.73
2019-05-06T21:49:00.740Z,8.25
2019-05-06T21:51:29.702Z,6.95
2019-05-06T21:54:02.935Z,8.28
2019-05-06T21:56:32.040Z,7.60
2019-05-06T21:59:02.032Z,7.62
2019-05-06T22:01:33.042Z,8.00
2019-05-06T22:04:03.193Z,7.60
2019-05-06T22:06:33.238Z,7.08
2019-05-06T22:09:02.768Z,7.22
2019-05-06T22:11:32.316Z,7.25
2019-05-06T22:14:01.970Z,7.10
2019-05-06T22:16:32.351Z,7.53
2019-05-06T22:19:02.599Z,7.65
2019-05-06T22:21:32.228Z,7.92
2019-05-06T22:24:04.587Z,8.15
2019-05-06T22:26:33.287Z,7.50
2019-05-06T22:29:02.349Z,7.90
2019-05-06T22:31:33.066Z,7.22
2019-05-06T22:34:01.580Z,6.90
2019-05-06T22:36:32.283Z,7.35
2019-05-06T22:39:02.463Z,7.20
2019-05-06T22:41:32.594Z,6.78
2019-05-06T22:44:12.467Z,7.08
2019-05-06T22:46:32.924Z,5.97
2019-05-06T22:49:02.570Z,6.40
2019-05-06T22:51:32.346Z,5.80
2019-05-06T22:54:02.683Z,6.25
2019-05-06T22:56:32.479Z,5.20
2019-05-06T22:59:03.296Z,6.35
2019-05-06T23:01:34.712Z,5.85
2019-05-06T23:04:03.949Z,5.75
2019-05-06T23:06:33.098Z,5.33
2019-05-06T23:09:04.851Z,5.25
2019-05-06T23:11:36.122Z,5.58
2019-05-06T23:14:05.298Z,4.50
2019-05-06T23:16:34.934Z,5.22
2019-05-06T23:19:04.181Z,5.62
2019-05-06T23:21:33.745Z,5.58
2019-05-06T23:24:02.579Z,5.83
2019-05-06T23:26:31.662Z,5.70
2019-05-06T23:29:02.442Z,5.97
2019-05-06T23:31:33.132Z,6.33
2019-05-06T23:34:02.331Z,6.15
2019-05-06T23:36:52.697Z,5.50
2019-05-06T23:39:42.855Z,5.40
2019-05-06T23:42:29.207Z,5.92
2019-05-06T23:45:16.634Z,6.03
2019-05-06T23:48:03.470Z,5.55
2019-05-06T23:50:50.165Z,5.85
2019-05-06T23:53:37.440Z,6.10
2019-05-06T23:56:24.175Z,5.85
2019-05-06T23:58:53.029Z,6.30
